createdAt,value
2018-07-14T06:24:46.679Z,11.20
2018-07-14T06:27:14.996Z,10.37
2018-07-14T06:29:43.216Z,9.93
2018-07-14T06:32:11.441Z,10.43
2018-07-14T06:34:39.684Z,9.80
2018-07-14T06:37:07.912Z,10.50
2018-07-14T06:39:36.156Z,9.90
2018-07-14T06:42:04.384Z,10.73
2018-07-14T06:44:32.640Z,10.63
2018-07-14T06:47:06.400Z,8.87
2018-07-14T06:49:34.647Z,9.43
2018-07-14T06:52:02.873Z,9.13
2018-07-14T06:54:31.119Z,9.37
2018-07-14T06:56:59.515Z,8.33
2018-07-14T06:59:27.764Z,8.57
2018-07-14T07:01:55.996Z,8.60
2018-07-14T07:04:24.232Z,8.20
2018-07-14T07:06:52.457Z,9.10
2018-07-14T07:09:20.705Z,8.90
2018-07-14T07:11:48.949Z,9.23
2018-07-14T07:14:17.189Z,8.53
2018-07-14T07:16:45.425Z,8.97
2018-07-14T07:19:13.667Z,10.10
2018-07-14T07:21:41.889Z,9.97
2018-07-14T07:24:10.141Z,9.47
2018-07-14T07:26:38.435Z,9.80
2018-07-14T07:29:06.681Z,8.60
2018-07-14T07:31:34.906Z,9.90
2018-07-14T07:34:03.659Z,8.97
2018-07-14T07:36:31.875Z,7.73
2018-07-14T07:39:00.157Z,9.03
2018-07-14T07:41:28.375Z,7.90
2018-07-14T07:43:56.605Z,7.77
2018-07-14T07:46:24.936Z,8.23
2018-07-14T07:48:53.180Z,8.00
2018-07-14T07:51:21.392Z,7.77
2018-07-14T07:53:49.635Z,8.13
2018-07-14T07:56:17.857Z,8.43
2018-07-14T07:58:46.100Z,8.07
2018-07-14T08:01:14.441Z,8.10
2018-07-14T08:03:42.712Z,8.10
2018-07-14T08:06:10.947Z,9.00
2018-07-14T08:08:39.216Z,8.40
2018-07-14T08:11:07.460Z,8.30
2018-07-14T08:13:35.708Z,8.27
2018-07-14T08:16:04.051Z,8.37
2018-07-14T08:18:32.347Z,7.80
2018-07-14T08:21:00.569Z,8.17
2018-07-14T08:23:28.803Z,7.00
2018-07-14T08:25:57.081Z,7.30
2018-07-14T08:28:25.332Z,6.47
2018-07-14T08:30:53.548Z,6.73
2018-07-14T08:33:21.772Z,7.23
2018-07-14T08:35:50.025Z,7.20
2018-07-14T08:38:18.245Z,8.03
2018-07-14T08:40:46.484Z,7.83
2018-07-14T08:43:14.701Z,7.97
2018-07-14T08:45:42.936Z,7.57
2018-07-14T08:48:11.156Z,6.97
2018-07-14T08:50:39.396Z,6.53
2018-07-14T08:53:07.656Z,6.13
2018-07-14T08:55:35.932Z,5.03
2018-07-14T08:58:04.175Z,6.10
2018-07-14T09:00:32.477Z,5.83
2018-07-14T09:03:00.696Z,6.17
2018-07-14T09:05:28.960Z,6.53
2018-07-14T09:07:57.182Z,5.80
2018-07-14T09:10:25.430Z,6.13
2018-07-14T09:12:53.676Z,5.57
2018-07-14T09:15:21.928Z,4.93
2018-07-14T09:17:50.153Z,4.80
2018-07-14T09:20:18.388Z,5.90
2018-07-14T09:22:46.617Z,5.03
2018-07-14T09:25:14.856Z,5.07
2018-07-14T09:27:43.159Z,5.20
2018-07-14T09:30:11.392Z,6.10
2018-07-14T09:32:39.653Z,4.60
2018-07-14T09:35:07.879Z,5.87
2018-07-14T09:37:36.101Z,5.80
2018-07-14T09:40:04.356Z,6.13
2018-07-14T09:42:32.569Z,6.37
2018-07-14T09:45:00.808Z,5.83
2018-07-14T09:47:29.020Z,6.50
2018-07-14T09:49:57.243Z,5.70
2018-07-14T09:52:25.468Z,5.77
2018-07-14T09:54:53.703Z,5.57
2018-07-14T09:57:21.920Z,5.80
2018-07-14T09:59:50.165Z,5.27
2018-07-14T10:02:18.376Z,5.10
2018-07-14T10:04:46.612Z,6.37
2018-07-14T10:07:14.848Z,6.13
2018-07-14T10:09:43.078Z,5.87
2018-07-14T10:12:11.308Z,6.23
2018-07-14T10:14:39.555Z,5.90
2018-07-14T10:17:07.853Z,6.00
2018-07-14T10:19:36.080Z,5.90
2018-07-14T10:22:04.293Z,6.33
2018-07-14T10:24:32.516Z,7.37
2018-07-14T10:27:00.760Z,6.00
2018-07-14T10:29:28.968Z,5.27
2018-07-14T10:31:57.217Z,4.73
2018-07-14T10:34:25.437Z,5.67
2018-07-14T10:36:53.668Z,5.33
2018-07-14T10:39:21.895Z,5.10
2018-07-14T10:41:50.203Z,5.10
2018-07-14T10:44:18.551Z,5.70
2018-07-14T10:46:46.891Z,5.47
2018-07-14T10:49:15.089Z,5.17
2018-07-14T10:51:43.326Z,6.13
2018-07-14T10:54:11.555Z,5.37
2018-07-14T10:56:39.801Z,5.60
2018-07-14T10:59:08.012Z,5.83
2018-07-14T11:01:36.250Z,6.23
2018-07-14T11:04:04.487Z,6.90
2018-07-14T11:06:32.720Z,6.50
2018-07-14T11:09:00.939Z,5.97
2018-07-14T11:11:29.200Z,6.67
2018-07-14T11:13:57.411Z,6.40
2018-07-14T11:16:25.645Z,5.80
2018-07-14T11:18:53.864Z,6.47
2018-07-14T11:21:22.100Z,5.40
2018-07-14T11:23:50.317Z,6.17
2018-07-14T11:26:18.552Z,5.90
2018-07-14T11:28:46.759Z,4.70
2018-07-14T11:31:14.996Z,5.27
2018-07-14T11:33:43.224Z,5.40
2018-07-14T11:36:11.472Z,4.73
2018-07-14T11:38:39.696Z,4.87
2018-07-14T11:41:07.953Z,4.50
2018-07-14T11:43:36.166Z,4.27
2018-07-14T11:46:04.500Z,4.70
2018-07-14T11:48:32.712Z,4.87
2018-07-14T11:51:00.940Z,4.20
2018-07-14T11:53:29.169Z,4.50
2018-07-14T11:55:57.399Z,4.63
2018-07-14T11:58:25.612Z,3.93
2018-07-14T12:00:53.863Z,4.40
2018-07-14T12:03:22.070Z,4.93
2018-07-14T12:05:50.331Z,3.87
2018-07-14T12:08:18.536Z,4.10
2018-07-14T12:10:46.772Z,3.83
2018-07-14T12:13:15.000Z,3.80
2018-07-14T12:15:43.256Z,3.63
2018-07-14T12:18:11.475Z,4.10
2018-07-14T12:20:39.688Z,3.40
2018-07-14T12:23:07.929Z,3.40
2018-07-14T12:25:36.132Z,3.37
2018-07-14T12:28:04.361Z,3.70
2018-07-14T12:30:32.578Z,3.67
2018-07-14T12:33:00.833Z,3.30
2018-07-14T12:35:29.044Z,3.70
2018-07-14T12:37:57.267Z,3.67
2018-07-14T12:40:25.493Z,3.33
2018-07-14T12:42:53.738Z,3.17
2018-07-14T12:45:21.951Z,3.47
2018-07-14T12:47:50.192Z,3.20
2018-07-14T12:50:18.423Z,3.67
2018-07-14T12:52:46.668Z,3.03
2018-07-14T12:55:14.880Z,3.40
2018-07-14T12:57:43.111Z,3.57
2018-07-14T13:00:11.410Z,3.17
2018-07-14T13:02:39.695Z,3.50
2018-07-14T13:05:08.106Z,3.57
2018-07-14T13:07:36.386Z,3.40
2018-07-14T13:10:05.319Z,2.93
2018-07-14T13:12:33.582Z,3.50
2018-07-14T13:15:01.873Z,3.63
2018-07-14T13:17:30.108Z,3.83
2018-07-14T13:19:58.344Z,3.30
2018-07-14T13:22:26.581Z,4.67
2018-07-14T13:24:54.800Z,3.10
2018-07-14T13:27:23.053Z,3.60
2018-07-14T13:29:51.272Z,3.10
2018-07-14T13:32:19.512Z,2.90
2018-07-14T13:34:47.740Z,3.50
2018-07-14T13:37:16.000Z,3.20
2018-07-14T13:39:44.232Z,3.60
2018-07-14T13:42:12.479Z,3.13
2018-07-14T13:44:40.716Z,3.57
2018-07-14T13:47:08.967Z,3.00
2018-07-14T13:49:37.197Z,3.23
2018-07-14T13:52:05.442Z,2.93
2018-07-14T13:54:33.661Z,2.80
2018-07-14T13:57:01.922Z,2.50
2018-07-14T13:59:30.143Z,3.63
2018-07-14T14:01:58.380Z,2.57
2018-07-14T14:04:26.599Z,2.80
2018-07-14T14:06:54.877Z,2.80
2018-07-14T14:09:23.160Z,2.97
2018-07-14T14:11:51.384Z,3.20
2018-07-14T14:14:19.620Z,2.70
2018-07-14T14:16:47.849Z,2.40
2018-07-14T14:19:16.096Z,2.97
2018-07-14T14:21:44.311Z,2.93
2018-07-14T14:24:12.552Z,3.20
2018-07-14T14:26:40.776Z,3.00
2018-07-14T14:29:09.021Z,2.77
2018-07-14T14:31:37.281Z,2.90
2018-07-14T14:34:05.530Z,3.10
2018-07-14T14:36:33.764Z,3.20
2018-07-14T14:39:02.013Z,2.60
2018-07-14T14:41:30.253Z,2.83
2018-07-14T14:43:58.499Z,2.37
2018-07-14T14:46:26.724Z,2.50
2018-07-14T14:48:54.966Z,2.40
2018-07-14T14:51:23.185Z,2.10
2018-07-14T14:53:52.253Z,2.30
2018-07-14T14:56:20.476Z,2.53
2018-07-14T14:58:49.161Z,2.70
2018-07-14T15:01:17.420Z,2.00
2018-07-14T15:03:45.649Z,2.10
2018-07-14T15:06:13.867Z,3.10
2018-07-14T15:08:42.119Z,2.83
2018-07-14T15:11:10.344Z,3.17
2018-07-14T15:13:38.604Z,3.27
2018-07-14T15:16:06.820Z,3.33
2018-07-14T15:18:35.068Z,3.87
2018-07-14T15:21:03.285Z,3.20
2018-07-14T15:23:31.519Z,3.10
2018-07-14T15:25:59.737Z,2.63
2018-07-14T15:28:27.972Z,2.93
2018-07-14T15:30:56.197Z,3.63
2018-07-14T15:33:24.570Z,3.07
2018-07-14T15:35:52.664Z,2.83
2018-07-14T15:38:20.883Z,3.40
2018-07-14T15:40:49.200Z,3.07
2018-07-14T15:43:17.453Z,3.20
2018-07-14T15:45:45.685Z,3.07
2018-07-14T15:48:13.930Z,3.17
2018-07-14T15:50:42.208Z,3.20
2018-07-14T15:53:10.447Z,3.27
2018-07-14T15:55:38.665Z,3.27
2018-07-14T15:58:06.903Z,3.07
2018-07-14T16:00:35.116Z,3.30
2018-07-14T16:03:03.361Z,3.17
2018-07-14T16:05:31.572Z,3.10
2018-07-14T16:07:59.863Z,3.20
2018-07-14T16:10:28.063Z,2.80
2018-07-14T16:12:56.296Z,3.13
2018-07-14T16:15:24.776Z,2.80
2018-07-14T16:17:52.992Z,2.90
2018-07-14T16:20:21.224Z,3.20
2018-07-14T16:22:49.454Z,3.20
2018-07-14T16:25:17.720Z,2.93
2018-07-14T16:27:45.948Z,3.10
2018-07-14T16:30:14.179Z,3.47
2018-07-14T16:32:42.403Z,3.17
2018-07-14T16:35:10.642Z,3.43
2018-07-14T16:37:38.888Z,3.33
2018-07-14T16:40:07.135Z,3.00
2018-07-14T16:42:35.352Z,3.00
2018-07-14T16:45:03.637Z,2.70
2018-07-14T16:47:31.855Z,3.57
2018-07-14T16:50:00.112Z,3.07
2018-07-14T16:52:28.326Z,3.70
2018-07-14T16:54:56.568Z,2.90
2018-07-14T16:57:24.784Z,3.33
2018-07-14T16:59:53.012Z,4.27
2018-07-14T17:02:21.236Z,3.50
2018-07-14T17:04:49.469Z,3.10
2018-07-14T17:07:17.697Z,3.30
2018-07-14T17:09:45.971Z,3.33
2018-07-14T17:12:14.208Z,3.03
2018-07-14T17:14:42.521Z,3.43
2018-07-14T17:17:11.132Z,3.03
2018-07-14T17:19:39.521Z,2.90
2018-07-14T17:22:08.554Z,3.30
2018-07-14T17:24:36.795Z,3.27
2018-07-14T17:27:05.122Z,3.33
2018-07-14T17:29:33.347Z,3.57
2018-07-14T17:32:01.572Z,3.40
2018-07-14T17:34:29.812Z,3.57
2018-07-14T17:36:58.033Z,3.73
2018-07-14T17:39:26.263Z,3.60
2018-07-14T17:41:54.488Z,3.53
2018-07-14T17:44:22.719Z,3.03
2018-07-14T17:46:50.941Z,3.50
2018-07-14T17:49:19.184Z,3.40
2018-07-14T17:51:47.402Z,3.73
2018-07-14T17:54:15.730Z,3.07
2018-07-14T17:56:43.945Z,3.47
2018-07-14T17:59:12.204Z,3.43
2018-07-14T18:01:40.420Z,3.20
2018-07-14T18:04:08.652Z,3.67
2018-07-14T18:06:36.891Z,3.80
2018-07-14T18:09:06.993Z,4.17
2018-07-14T18:11:35.253Z,3.60
2018-07-14T18:14:03.473Z,3.57
2018-07-14T18:16:31.772Z,3.60
2018-07-14T18:18:59.956Z,4.60
2018-07-14T18:21:28.196Z,4.40
2018-07-14T18:23:56.556Z,4.13
2018-07-14T18:26:24.780Z,4.53
2018-07-14T18:28:53.032Z,4.40
2018-07-14T18:31:21.267Z,4.53
2018-07-14T18:33:49.539Z,4.87
2018-07-14T18:36:17.833Z,4.37
2018-07-14T18:38:46.008Z,4.10
2018-07-14T18:41:14.256Z,4.70
2018-07-14T18:43:42.492Z,4.57
2018-07-14T18:46:10.728Z,4.30
2018-07-14T18:48:38.964Z,4.20
2018-07-14T18:51:07.193Z,4.47
2018-07-14T18:53:35.548Z,4.53
2018-07-14T18:56:03.788Z,4.37
2018-07-14T18:58:31.988Z,4.80
2018-07-14T19:01:00.232Z,4.87
2018-07-14T19:03:28.450Z,4.63
2018-07-14T19:05:56.713Z,5.00
2018-07-14T19:08:25.147Z,6.13
2018-07-14T19:10:53.389Z,6.00
2018-07-14T19:13:21.629Z,7.50
2018-07-14T19:15:49.852Z,8.47
2018-07-14T19:18:18.080Z,11.47
2018-07-14T19:20:46.309Z,8.50
2018-07-14T19:23:14.528Z,10.03
2018-07-14T19:25:42.812Z,7.67
2018-07-14T19:28:11.007Z,6.73
2018-07-14T19:30:39.240Z,7.50
2018-07-14T19:33:07.458Z,7.27
2018-07-14T19:35:35.690Z,6.67
2018-07-14T19:38:03.953Z,6.37
2018-07-14T19:40:32.180Z,5.90
2018-07-14T19:43:00.392Z,6.17
2018-07-14T19:45:28.619Z,6.77
2018-07-14T19:47:56.833Z,6.13
2018-07-14T19:50:25.096Z,6.00
2018-07-14T19:52:53.307Z,6.00
2018-07-14T19:55:21.552Z,5.97
2018-07-14T19:57:49.757Z,6.30
2018-07-14T20:00:17.976Z,5.80
2018-07-14T20:02:46.233Z,6.30
2018-07-14T20:05:14.440Z,6.30
2018-07-14T20:07:42.683Z,5.83
2018-07-14T20:10:10.896Z,6.60
2018-07-14T20:12:39.152Z,6.17
2018-07-14T20:15:07.368Z,6.80
